sensor_id;sensor_type;location;lat;lon;timestamp;P1;durP1;ratioP1;P2;durP2;ratioP2
42260;SDS011;27926;48.062;7.474;2023-05-07T00:01:58;3.38;;;1.60;;
42260;SDS011;27926;48.062;7.474;2023-05-07T00:04:22;4.15;;;2.05;;
42260;SDS011;27926;48.062;7.474;2023-05-07T00:06:47;5.65;;;2.17;;
42260;SDS011;27926;48.062;7.474;2023-05-07T00:09:11;6.32;;;1.73;;
42260;SDS011;27926;48.062;7.474;2023-05-07T00:11:36;3.55;;;1.77;;
42260;SDS011;27926;48.062;7.474;2023-05-07T00:14:01;3.90;;;1.45;;
42260;SDS011;27926;48.062;7.474;2023-05-07T00:16:25;6.65;;;1.73;;
42260;SDS011;27926;48.062;7.474;2023-05-07T00:18:50;7.18;;;2.58;;
42260;SDS011;27926;48.062;7.474;2023-05-07T00:21:14;4.55;;;1.80;;
42260;SDS011;27926;48.062;7.474;2023-05-07T00:23:39;5.60;;;2.05;;
42260;SDS011;27926;48.062;7.474;2023-05-07T00:26:04;10.27;;;2.10;;
42260;SDS011;27926;48.062;7.474;2023-05-07T00:28:29;3.17;;;1.60;;
42260;SDS011;27926;48.062;7.474;2023-05-07T00:30:53;2.40;;;1.67;;
42260;SDS011;27926;48.062;7.474;2023-05-07T00:33:18;5.20;;;2.08;;
42260;SDS011;27926;48.062;7.474;2023-05-07T00:35:44;2.72;;;1.52;;
42260;SDS011;27926;48.062;7.474;2023-05-07T00:38:09;2.55;;;1.80;;
42260;SDS011;27926;48.062;7.474;2023-05-07T00:40:34;8.73;;;1.77;;
42260;SDS011;27926;48.062;7.474;2023-05-07T00:42:58;6.47;;;2.10;;
42260;SDS011;27926;48.062;7.474;2023-05-07T00:45:27;3.95;;;2.20;;
42260;SDS011;27926;48.062;7.474;2023-05-07T00:47:55;4.35;;;2.28;;
42260;SDS011;27926;48.062;7.474;2023-05-07T00:50:22;3.75;;;1.85;;
42260;SDS011;27926;48.062;7.474;2023-05-07T00:52:47;6.03;;;2.40;;
42260;SDS011;27926;48.062;7.474;2023-05-07T00:55:11;4.25;;;1.92;;
42260;SDS011;27926;48.062;7.474;2023-05-07T00:57:39;3.38;;;1.75;;
42260;SDS011;27926;48.062;7.474;2023-05-07T01:00:05;5.03;;;1.83;;
42260;SDS011;27926;48.062;7.474;2023-05-07T01:02:32;7.32;;;2.83;;
42260;SDS011;27926;48.062;7.474;2023-05-07T01:04:57;5.43;;;2.20;;
42260;SDS011;27926;48.062;7.474;2023-05-07T01:07:22;2.83;;;1.98;;
42260;SDS011;27926;48.062;7.474;2023-05-07T01:09:47;7.60;;;1.63;;
42260;SDS011;27926;48.062;7.474;2023-05-07T01:12:12;6.90;;;1.60;;
42260;SDS011;27926;48.062;7.474;2023-05-07T01:14:37;8.77;;;2.50;;
42260;SDS011;27926;48.062;7.474;2023-05-07T01:17:01;10.18;;;2.33;;
42260;SDS011;27926;48.062;7.474;2023-05-07T01:19:26;5.88;;;2.00;;
42260;SDS011;27926;48.062;7.474;2023-05-07T01:21:54;3.20;;;1.77;;
42260;SDS011;27926;48.062;7.474;2023-05-07T01:24:25;4.50;;;1.98;;
42260;SDS011;27926;48.062;7.474;2023-05-07T01:26:49;6.32;;;2.10;;
42260;SDS011;27926;48.062;7.474;2023-05-07T01:29:14;3.58;;;2.13;;
42260;SDS011;27926;48.062;7.474;2023-05-07T01:31:38;2.67;;;2.00;;
42260;SDS011;27926;48.062;7.474;2023-05-07T01:34:06;3.20;;;1.75;;
42260;SDS011;27926;48.062;7.474;2023-05-07T01:36:34;3.08;;;1.85;;
42260;SDS011;27926;48.062;7.474;2023-05-07T01:39:01;6.47;;;2.40;;
42260;SDS011;27926;48.062;7.474;2023-05-07T01:41:26;1.90;;;1.52;;
42260;SDS011;27926;48.062;7.474;2023-05-07T01:43:50;6.45;;;1.98;;
42260;SDS011;27926;48.062;7.474;2023-05-07T01:46:17;5.95;;;2.10;;
42260;SDS011;27926;48.062;7.474;2023-05-07T01:48:42;13.05;;;2.25;;
42260;SDS011;27926;48.062;7.474;2023-05-07T01:51:09;9.25;;;2.65;;
42260;SDS011;27926;48.062;7.474;2023-05-07T01:53:37;2.85;;;1.90;;
42260;SDS011;27926;48.062;7.474;2023-05-07T01:56:03;5.88;;;2.22;;
42260;SDS011;27926;48.062;7.474;2023-05-07T01:58:28;7.25;;;1.90;;
42260;SDS011;27926;48.062;7.474;2023-05-07T02:00:52;6.03;;;2.38;;
42260;SDS011;27926;48.062;7.474;2023-05-07T02:03:17;5.50;;;3.00;;
42260;SDS011;27926;48.062;7.474;2023-05-07T02:05:41;4.22;;;2.20;;
42260;SDS011;27926;48.062;7.474;2023-05-07T02:08:06;7.78;;;2.25;;
42260;SDS011;27926;48.062;7.474;2023-05-07T02:10:30;4.35;;;2.20;;
42260;SDS011;27926;48.062;7.474;2023-05-07T02:12:55;7.07;;;2.53;;
42260;SDS011;27926;48.062;7.474;2023-05-07T02:15:20;5.07;;;1.90;;
42260;SDS011;27926;48.062;7.474;2023-05-07T02:20:30;3.67;;;2.40;;
42260;SDS011;27926;48.062;7.474;2023-05-07T02:22:54;4.45;;;1.92;;
42260;SDS011;27926;48.062;7.474;2023-05-07T02:25:19;6.75;;;2.00;;
42260;SDS011;27926;48.062;7.474;2023-05-07T02:27:43;4.35;;;2.10;;
42260;SDS011;27926;48.062;7.474;2023-05-07T02:30:08;5.55;;;2.65;;
42260;SDS011;27926;48.062;7.474;2023-05-07T02:32:33;3.67;;;2.47;;
42260;SDS011;27926;48.062;7.474;2023-05-07T02:34:58;3.35;;;2.30;;
42260;SDS011;27926;48.062;7.474;2023-05-07T02:37:23;10.38;;;2.10;;
42260;SDS011;27926;48.062;7.474;2023-05-07T02:39:48;4.25;;;2.38;;
42260;SDS011;27926;48.062;7.474;2023-05-07T02:42:12;4.22;;;2.33;;
42260;SDS011;27926;48.062;7.474;2023-05-07T02:44:37;5.65;;;2.00;;
42260;SDS011;27926;48.062;7.474;2023-05-07T02:47:01;3.22;;;1.88;;
42260;SDS011;27926;48.062;7.474;2023-05-07T02:49:26;3.03;;;2.15;;
42260;SDS011;27926;48.062;7.474;2023-05-07T02:51:50;8.00;;;1.88;;
42260;SDS011;27926;48.062;7.474;2023-05-07T02:54:15;3.53;;;2.08;;
42260;SDS011;27926;48.062;7.474;2023-05-07T02:56:40;4.00;;;2.30;;
42260;SDS011;27926;48.062;7.474;2023-05-07T02:59:04;3.50;;;2.22;;
42260;SDS011;27926;48.062;7.474;2023-05-07T03:01:29;4.05;;;2.35;;
42260;SDS011;27926;48.062;7.474;2023-05-07T03:03:53;3.75;;;1.77;;
42260;SDS011;27926;48.062;7.474;2023-05-07T03:06:18;5.03;;;2.10;;
42260;SDS011;27926;48.062;7.474;2023-05-07T03:08:42;9.40;;;2.42;;
42260;SDS011;27926;48.062;7.474;2023-05-07T03:11:07;2.92;;;2.30;;
42260;SDS011;27926;48.062;7.474;2023-05-07T03:13:32;30.05;;;21.83;;
42260;SDS011;27926;48.062;7.474;2023-05-07T03:15:56;14.10;;;7.55;;
42260;SDS011;27926;48.062;7.474;2023-05-07T03:18:21;4.15;;;2.70;;
42260;SDS011;27926;48.062;7.474;2023-05-07T03:20:45;7.88;;;2.53;;
42260;SDS011;27926;48.062;7.474;2023-05-07T03:25:36;3.22;;;2.28;;
42260;SDS011;27926;48.062;7.474;2023-05-07T03:28:01;3.95;;;2.60;;
42260;SDS011;27926;48.062;7.474;2023-05-07T03:30:25;6.88;;;2.25;;
42260;SDS011;27926;48.062;7.474;2023-05-07T03:32:50;21.65;;;3.08;;
42260;SDS011;27926;48.062;7.474;2023-05-07T03:35:14;2.65;;;1.88;;
42260;SDS011;27926;48.062;7.474;2023-05-07T03:37:39;5.95;;;2.05;;
42260;SDS011;27926;48.062;7.474;2023-05-07T03:40:05;14.30;;;2.22;;
42260;SDS011;27926;48.062;7.474;2023-05-07T03:42:30;5.20;;;1.80;;
42260;SDS011;27926;48.062;7.474;2023-05-07T03:44:55;5.68;;;2.03;;
42260;SDS011;27926;48.062;7.474;2023-05-07T03:47:19;2.40;;;1.67;;
42260;SDS011;27926;48.062;7.474;2023-05-07T03:49:44;4.68;;;2.25;;
42260;SDS011;27926;48.062;7.474;2023-05-07T03:52:09;3.78;;;1.98;;
42260;SDS011;27926;48.062;7.474;2023-05-07T03:54:33;2.83;;;2.00;;
42260;SDS011;27926;48.062;7.474;2023-05-07T03:56:58;3.55;;;2.08;;
42260;SDS011;27926;48.062;7.474;2023-05-07T03:59:22;3.95;;;2.38;;
42260;SDS011;27926;48.062;7.474;2023-05-07T04:01:47;2.22;;;1.90;;
42260;SDS011;27926;48.062;7.474;2023-05-07T04:04:12;4.28;;;2.13;;
42260;SDS011;27926;48.062;7.474;2023-05-07T04:06:37;2.70;;;1.70;;
42260;SDS011;27926;48.062;7.474;2023-05-07T04:09:02;8.93;;;2.22;;
42260;SDS011;27926;48.062;7.474;2023-05-07T04:11:27;5.28;;;1.98;;
42260;SDS011;27926;48.062;7.474;2023-05-07T04:13:51;2.17;;;1.75;;
42260;SDS011;27926;48.062;7.474;2023-05-07T04:16:16;5.07;;;2.38;;
42260;SDS011;27926;48.062;7.474;2023-05-07T04:18:41;7.13;;;2.15;;
42260;SDS011;27926;48.062;7.474;2023-05-07T04:21:05;3.55;;;2.00;;
42260;SDS011;27926;48.062;7.474;2023-05-07T04:23:37;4.20;;;1.95;;
42260;SDS011;27926;48.062;7.474;2023-05-07T04:26:02;5.22;;;2.22;;
42260;SDS011;27926;48.062;7.474;2023-05-07T04:28:27;3.53;;;1.67;;
42260;SDS011;27926;48.062;7.474;2023-05-07T04:30:51;9.15;;;1.90;;
42260;SDS011;27926;48.062;7.474;2023-05-07T04:33:16;4.60;;;1.75;;
42260;SDS011;27926;48.062;7.474;2023-05-07T04:35:41;4.18;;;2.15;;
42260;SDS011;27926;48.062;7.474;2023-05-07T04:38:05;12.15;;;1.92;;
42260;SDS011;27926;48.062;7.474;2023-05-07T04:40:30;3.95;;;1.98;;
42260;SDS011;27926;48.062;7.474;2023-05-07T04:42:55;1.55;;;1.45;;
42260;SDS011;27926;48.062;7.474;2023-05-07T04:45:19;8.55;;;2.22;;
42260;SDS011;27926;48.062;7.474;2023-05-07T04:47:44;1.98;;;1.45;;
42260;SDS011;27926;48.062;7.474;2023-05-07T04:50:09;2.00;;;1.63;;
42260;SDS011;27926;48.062;7.474;2023-05-07T04:52:34;6.68;;;1.60;;
42260;SDS011;27926;48.062;7.474;2023-05-07T04:54:59;6.03;;;1.58;;
42260;SDS011;27926;48.062;7.474;2023-05-07T04:57:24;3.47;;;2.88;;
42260;SDS011;27926;48.062;7.474;2023-05-07T04:59:50;3.58;;;2.25;;
42260;SDS011;27926;48.062;7.474;2023-05-07T05:02:15;3.38;;;1.63;;
42260;SDS011;27926;48.062;7.474;2023-05-07T05:04:39;2.65;;;1.60;;
42260;SDS011;27926;48.062;7.474;2023-05-07T05:07:05;6.20;;;1.63;;
42260;SDS011;27926;48.062;7.474;2023-05-07T05:09:29;3.97;;;2.78;;
42260;SDS011;27926;48.062;7.474;2023-05-07T05:11:54;5.00;;;3.40;;
42260;SDS011;27926;48.062;7.474;2023-05-07T05:14:19;6.28;;;3.72;;
42260;SDS011;27926;48.062;7.474;2023-05-07T05:16:43;8.73;;;3.47;;
42260;SDS011;27926;48.062;7.474;2023-05-07T05:19:08;8.65;;;4.15;;
42260;SDS011;27926;48.062;7.474;2023-05-07T05:21:32;3.05;;;2.22;;
42260;SDS011;27926;48.062;7.474;2023-05-07T05:23:57;7.95;;;2.67;;
42260;SDS011;27926;48.062;7.474;2023-05-07T05:26:22;9.50;;;2.63;;
42260;SDS011;27926;48.062;7.474;2023-05-07T05:28:47;8.50;;;4.53;;
42260;SDS011;27926;48.062;7.474;2023-05-07T05:31:11;10.65;;;5.15;;
42260;SDS011;27926;48.062;7.474;2023-05-07T05:33:36;9.85;;;4.55;;
42260;SDS011;27926;48.062;7.474;2023-05-07T05:36:00;10.63;;;4.95;;
42260;SDS011;27926;48.062;7.474;2023-05-07T05:38:25;7.38;;;4.68;;
42260;SDS011;27926;48.062;7.474;2023-05-07T05:40:49;12.65;;;4.32;;
42260;SDS011;27926;48.062;7.474;2023-05-07T05:45:40;11.93;;;4.45;;
42260;SDS011;27926;48.062;7.474;2023-05-07T05:48:05;10.20;;;5.88;;
42260;SDS011;27926;48.062;7.474;2023-05-07T05:50:30;16.17;;;7.68;;
42260;SDS011;27926;48.062;7.474;2023-05-07T05:52:54;13.02;;;6.75;;
42260;SDS011;27926;48.062;7.474;2023-05-07T05:55:19;17.02;;;6.13;;
42260;SDS011;27926;48.062;7.474;2023-05-07T05:57:44;16.17;;;6.40;;
42260;SDS011;27926;48.062;7.474;2023-05-07T06:00:09;18.10;;;9.70;;
42260;SDS011;27926;48.062;7.474;2023-05-07T06:02:34;17.60;;;10.27;;
42260;SDS011;27926;48.062;7.474;2023-05-07T06:04:58;12.68;;;6.18;;
42260;SDS011;27926;48.062;7.474;2023-05-07T06:07:23;7.75;;;5.38;;
42260;SDS011;27926;48.062;7.474;2023-05-07T06:09:47;11.30;;;4.75;;
42260;SDS011;27926;48.062;7.474;2023-05-07T06:12:12;8.27;;;4.15;;
42260;SDS011;27926;48.062;7.474;2023-05-07T06:14:36;7.90;;;4.05;;
42260;SDS011;27926;48.062;7.474;2023-05-07T06:17:01;14.25;;;4.70;;
42260;SDS011;27926;48.062;7.474;2023-05-07T06:19:26;8.80;;;3.95;;
42260;SDS011;27926;48.062;7.474;2023-05-07T06:24:16;12.75;;;4.28;;
42260;SDS011;27926;48.062;7.474;2023-05-07T06:26:41;6.38;;;3.55;;
42260;SDS011;27926;48.062;7.474;2023-05-07T06:29:05;5.90;;;4.30;;
42260;SDS011;27926;48.062;7.474;2023-05-07T06:31:30;6.13;;;3.95;;
42260;SDS011;27926;48.062;7.474;2023-05-07T06:33:55;4.07;;;3.33;;
42260;SDS011;27926;48.062;7.474;2023-05-07T06:36:20;6.43;;;3.50;;
42260;SDS011;27926;48.062;7.474;2023-05-07T06:38:45;10.07;;;3.67;;
42260;SDS011;27926;48.062;7.474;2023-05-07T06:41:09;5.93;;;3.03;;
42260;SDS011;27926;48.062;7.474;2023-05-07T06:43:35;6.05;;;3.45;;
42260;SDS011;27926;48.062;7.474;2023-05-07T06:45:59;4.97;;;2.92;;
42260;SDS011;27926;48.062;7.474;2023-05-07T06:48:24;7.40;;;3.10;;
42260;SDS011;27926;48.062;7.474;2023-05-07T06:50:49;4.57;;;3.03;;
42260;SDS011;27926;48.062;7.474;2023-05-07T06:53:13;4.87;;;3.20;;
42260;SDS011;27926;48.062;7.474;2023-05-07T06:55:38;11.57;;;2.67;;
42260;SDS011;27926;48.062;7.474;2023-05-07T06:58:03;7.83;;;2.90;;
42260;SDS011;27926;48.062;7.474;2023-05-07T07:00:30;5.75;;;2.83;;
42260;SDS011;27926;48.062;7.474;2023-05-07T07:02:55;4.67;;;2.50;;
42260;SDS011;27926;48.062;7.474;2023-05-07T07:05:20;7.63;;;2.88;;
42260;SDS011;27926;48.062;7.474;2023-05-07T07:07:45;7.57;;;3.00;;
42260;SDS011;27926;48.062;7.474;2023-05-07T07:10:16;5.43;;;2.20;;
42260;SDS011;27926;48.062;7.474;2023-05-07T07:12:41;7.07;;;2.53;;
42260;SDS011;27926;48.062;7.474;2023-05-07T07:15:05;6.90;;;3.27;;
42260;SDS011;27926;48.062;7.474;2023-05-07T07:17:30;9.73;;;2.65;;
42260;SDS011;27926;48.062;7.474;2023-05-07T07:19:55;12.53;;;2.70;;
42260;SDS011;27926;48.062;7.474;2023-05-07T07:22:19;5.03;;;3.00;;
42260;SDS011;27926;48.062;7.474;2023-05-07T07:24:44;4.50;;;2.53;;
42260;SDS011;27926;48.062;7.474;2023-05-07T07:27:08;6.47;;;3.07;;
42260;SDS011;27926;48.062;7.474;2023-05-07T07:29:33;5.37;;;2.43;;
42260;SDS011;27926;48.062;7.474;2023-05-07T07:31:58;8.10;;;2.60;;
42260;SDS011;27926;48.062;7.474;2023-05-07T07:34:22;4.77;;;2.83;;
42260;SDS011;27926;48.062;7.474;2023-05-07T07:36:47;4.67;;;3.20;;
42260;SDS011;27926;48.062;7.474;2023-05-07T07:39:11;4.67;;;3.00;;
42260;SDS011;27926;48.062;7.474;2023-05-07T07:41:36;2.80;;;2.33;;
42260;SDS011;27926;48.062;7.474;2023-05-07T07:44:02;6.53;;;2.93;;
42260;SDS011;27926;48.062;7.474;2023-05-07T07:46:27;5.60;;;2.97;;
42260;SDS011;27926;48.062;7.474;2023-05-07T07:48:52;5.60;;;3.43;;
42260;SDS011;27926;48.062;7.474;2023-05-07T07:51:17;6.30;;;3.22;;
42260;SDS011;27926;48.062;7.474;2023-05-07T07:53:42;6.73;;;2.97;;
42260;SDS011;27926;48.062;7.474;2023-05-07T07:56:07;6.63;;;2.88;;
42260;SDS011;27926;48.062;7.474;2023-05-07T07:58:32;3.43;;;2.80;;
42260;SDS011;27926;48.062;7.474;2023-05-07T08:00:56;5.83;;;2.63;;
42260;SDS011;27926;48.062;7.474;2023-05-07T08:03:22;7.78;;;3.13;;
42260;SDS011;27926;48.062;7.474;2023-05-07T08:05:47;4.20;;;2.47;;
42260;SDS011;27926;48.062;7.474;2023-05-07T08:08:13;5.32;;;2.65;;
42260;SDS011;27926;48.062;7.474;2023-05-07T08:10:38;10.03;;;2.77;;
42260;SDS011;27926;48.062;7.474;2023-05-07T08:13:03;5.73;;;2.73;;
42260;SDS011;27926;48.062;7.474;2023-05-07T08:15:28;5.00;;;3.00;;
42260;SDS011;27926;48.062;7.474;2023-05-07T08:17:52;5.87;;;3.53;;
42260;SDS011;27926;48.062;7.474;2023-05-07T08:20:17;5.73;;;3.60;;
42260;SDS011;27926;48.062;7.474;2023-05-07T08:22:42;5.93;;;3.23;;
42260;SDS011;27926;48.062;7.474;2023-05-07T08:25:06;8.10;;;4.00;;
42260;SDS011;27926;48.062;7.474;2023-05-07T08:27:31;6.77;;;3.50;;
42260;SDS011;27926;48.062;7.474;2023-05-07T08:29:56;5.37;;;3.13;;
42260;SDS011;27926;48.062;7.474;2023-05-07T08:32:21;3.73;;;2.70;;
42260;SDS011;27926;48.062;7.474;2023-05-07T08:34:45;9.73;;;2.80;;
42260;SDS011;27926;48.062;7.474;2023-05-07T08:37:12;6.43;;;2.40;;
42260;SDS011;27926;48.062;7.474;2023-05-07T08:39:37;6.27;;;2.50;;
42260;SDS011;27926;48.062;7.474;2023-05-07T08:42:01;4.40;;;2.37;;
42260;SDS011;27926;48.062;7.474;2023-05-07T08:44:34;6.15;;;2.45;;
42260;SDS011;27926;48.062;7.474;2023-05-07T08:47:01;14.52;;;2.67;;
42260;SDS011;27926;48.062;7.474;2023-05-07T08:49:27;5.32;;;3.05;;
42260;SDS011;27926;48.062;7.474;2023-05-07T08:54:16;5.75;;;2.65;;
42260;SDS011;27926;48.062;7.474;2023-05-07T08:56:42;6.63;;;3.10;;
42260;SDS011;27926;48.062;7.474;2023-05-07T08:59:06;6.37;;;2.53;;
42260;SDS011;27926;48.062;7.474;2023-05-07T09:01:31;5.77;;;2.97;;
42260;SDS011;27926;48.062;7.474;2023-05-07T09:03:57;6.07;;;3.07;;
42260;SDS011;27926;48.062;7.474;2023-05-07T09:08:50;4.07;;;2.90;;
42260;SDS011;27926;48.062;7.474;2023-05-07T09:11:16;6.90;;;3.33;;
42260;SDS011;27926;48.062;7.474;2023-05-07T09:13:43;7.50;;;4.18;;
42260;SDS011;27926;48.062;7.474;2023-05-07T09:16:11;7.57;;;4.03;;
42260;SDS011;27926;48.062;7.474;2023-05-07T09:18:40;5.07;;;3.58;;
42260;SDS011;27926;48.062;7.474;2023-05-07T09:21:15;4.38;;;3.15;;
42260;SDS011;27926;48.062;7.474;2023-05-07T09:23:39;5.55;;;2.80;;
42260;SDS011;27926;48.062;7.474;2023-05-07T09:26:05;8.50;;;3.45;;
42260;SDS011;27926;48.062;7.474;2023-05-07T09:28:36;6.63;;;2.85;;
42260;SDS011;27926;48.062;7.474;2023-05-07T09:31:03;6.93;;;3.35;;
42260;SDS011;27926;48.062;7.474;2023-05-07T09:33:28;8.07;;;3.58;;
42260;SDS011;27926;48.062;7.474;2023-05-07T09:35:54;5.85;;;2.97;;
42260;SDS011;27926;48.062;7.474;2023-05-07T09:38:19;4.60;;;2.50;;
42260;SDS011;27926;48.062;7.474;2023-05-07T09:40:45;8.60;;;2.95;;
42260;SDS011;27926;48.062;7.474;2023-05-07T09:43:10;7.10;;;3.00;;
42260;SDS011;27926;48.062;7.474;2023-05-07T09:48:00;7.55;;;2.70;;
42260;SDS011;27926;48.062;7.474;2023-05-07T09:50:29;4.60;;;2.80;;
42260;SDS011;27926;48.062;7.474;2023-05-07T09:52:59;6.55;;;2.13;;
42260;SDS011;27926;48.062;7.474;2023-05-07T09:55:25;5.43;;;2.55;;
42260;SDS011;27926;48.062;7.474;2023-05-07T09:57:51;5.97;;;2.05;;
42260;SDS011;27926;48.062;7.474;2023-05-07T10:00:21;7.22;;;2.28;;
42260;SDS011;27926;48.062;7.474;2023-05-07T10:02:47;6.72;;;2.78;;
42260;SDS011;27926;48.062;7.474;2023-05-07T10:05:14;6.43;;;2.53;;
42260;SDS011;27926;48.062;7.474;2023-05-07T10:07:38;3.40;;;2.60;;
42260;SDS011;27926;48.062;7.474;2023-05-07T10:10:04;3.78;;;2.38;;
42260;SDS011;27926;48.062;7.474;2023-05-07T10:15:01;4.50;;;1.95;;
42260;SDS011;27926;48.062;7.474;2023-05-07T10:17:26;3.53;;;2.57;;
42260;SDS011;27926;48.062;7.474;2023-05-07T10:19:50;7.17;;;2.60;;
42260;SDS011;27926;48.062;7.474;2023-05-07T10:22:17;4.68;;;2.33;;
42260;SDS011;27926;48.062;7.474;2023-05-07T10:24:42;8.00;;;2.43;;
42260;SDS011;27926;48.062;7.474;2023-05-07T10:27:11;4.18;;;2.58;;
42260;SDS011;27926;48.062;7.474;2023-05-07T10:32:43;4.60;;;2.33;;
42260;SDS011;27926;48.062;7.474;2023-05-07T10:37:43;5.00;;;2.67;;
42260;SDS011;27926;48.062;7.474;2023-05-07T10:40:09;4.57;;;2.40;;
42260;SDS011;27926;48.062;7.474;2023-05-07T10:42:34;5.10;;;1.73;;
42260;SDS011;27926;48.062;7.474;2023-05-07T10:45:10;3.63;;;2.17;;
42260;SDS011;27926;48.062;7.474;2023-05-07T10:50:34;11.88;;;2.25;;
42260;SDS011;27926;48.062;7.474;2023-05-07T10:55:46;7.43;;;2.78;;
42260;SDS011;27926;48.062;7.474;2023-05-07T10:58:25;6.15;;;2.83;;
42260;SDS011;27926;48.062;7.474;2023-05-07T11:00:55;9.18;;;3.08;;
42260;SDS011;27926;48.062;7.474;2023-05-07T11:03:24;6.93;;;3.10;;
42260;SDS011;27926;48.062;7.474;2023-05-07T11:06:08;6.22;;;3.53;;
42260;SDS011;27926;48.062;7.474;2023-05-07T11:14:11;12.35;;;3.97;;
42260;SDS011;27926;48.062;7.474;2023-05-07T11:16:36;13.85;;;4.10;;
42260;SDS011;27926;48.062;7.474;2023-05-07T11:19:01;6.93;;;4.25;;
42260;SDS011;27926;48.062;7.474;2023-05-07T11:24:04;7.10;;;3.92;;
42260;SDS011;27926;48.062;7.474;2023-05-07T11:26:47;9.95;;;3.22;;
42260;SDS011;27926;48.062;7.474;2023-05-07T11:29:14;4.97;;;2.47;;
42260;SDS011;27926;48.062;7.474;2023-05-07T11:34:04;7.65;;;2.67;;
42260;SDS011;27926;48.062;7.474;2023-05-07T11:36:30;3.15;;;1.75;;
42260;SDS011;27926;48.062;7.474;2023-05-07T11:38:56;9.02;;;1.88;;
42260;SDS011;27926;48.062;7.474;2023-05-07T11:41:21;5.40;;;2.10;;
42260;SDS011;27926;48.062;7.474;2023-05-07T11:43:54;2.22;;;1.38;;
42260;SDS011;27926;48.062;7.474;2023-05-07T11:46:20;5.82;;;1.58;;
42260;SDS011;27926;48.062;7.474;2023-05-07T11:48:44;4.97;;;1.83;;
42260;SDS011;27926;48.062;7.474;2023-05-07T11:51:09;4.10;;;1.45;;
42260;SDS011;27926;48.062;7.474;2023-05-07T11:53:36;7.40;;;1.33;;
42260;SDS011;27926;48.062;7.474;2023-05-07T11:56:09;5.22;;;1.35;;
42260;SDS011;27926;48.062;7.474;2023-05-07T11:58:35;2.58;;;1.08;;
42260;SDS011;27926;48.062;7.474;2023-05-07T12:01:00;4.78;;;1.50;;
42260;SDS011;27926;48.062;7.474;2023-05-07T12:03:25;8.60;;;1.60;;
42260;SDS011;27926;48.062;7.474;2023-05-07T12:05:49;3.83;;;1.40;;
42260;SDS011;27926;48.062;7.474;2023-05-07T12:08:17;3.97;;;2.07;;
42260;SDS011;27926;48.062;7.474;2023-05-07T12:10:43;3.67;;;1.35;;
42260;SDS011;27926;48.062;7.474;2023-05-07T12:13:18;5.35;;;1.23;;
42260;SDS011;27926;48.062;7.474;2023-05-07T12:15:44;2.13;;;1.20;;
42260;SDS011;27926;48.062;7.474;2023-05-07T12:18:09;3.87;;;1.40;;
42260;SDS011;27926;48.062;7.474;2023-05-07T12:20:35;2.95;;;1.02;;
42260;SDS011;27926;48.062;7.474;2023-05-07T12:23:01;2.65;;;1.00;;
42260;SDS011;27926;48.062;7.474;2023-05-07T12:25:26;1.90;;;0.93;;
42260;SDS011;27926;48.062;7.474;2023-05-07T12:27:53;1.90;;;0.93;;
42260;SDS011;27926;48.062;7.474;2023-05-07T12:30:19;3.17;;;0.90;;
42260;SDS011;27926;48.062;7.474;2023-05-07T12:32:44;2.20;;;1.00;;
42260;SDS011;27926;48.062;7.474;2023-05-07T12:37:34;4.13;;;1.00;;
42260;SDS011;27926;48.062;7.474;2023-05-07T12:42:39;2.55;;;1.02;;
42260;SDS011;27926;48.062;7.474;2023-05-07T12:45:11;3.22;;;1.08;;
42260;SDS011;27926;48.062;7.474;2023-05-07T12:47:45;4.07;;;1.10;;
42260;SDS011;27926;48.062;7.474;2023-05-07T12:50:10;5.30;;;1.30;;
42260;SDS011;27926;48.062;7.474;2023-05-07T12:52:35;2.08;;;0.77;;
42260;SDS011;27926;48.062;7.474;2023-05-07T12:55:04;1.88;;;0.73;;
42260;SDS011;27926;48.062;7.474;2023-05-07T12:57:30;3.60;;;0.80;;
42260;SDS011;27926;48.062;7.474;2023-05-07T13:00:01;2.50;;;1.15;;
42260;SDS011;27926;48.062;7.474;2023-05-07T13:02:38;4.40;;;0.80;;
42260;SDS011;27926;48.062;7.474;2023-05-07T13:05:04;1.83;;;1.00;;
42260;SDS011;27926;48.062;7.474;2023-05-07T13:07:29;2.27;;;1.20;;
42260;SDS011;27926;48.062;7.474;2023-05-07T13:09:54;4.30;;;1.47;;
42260;SDS011;27926;48.062;7.474;2023-05-07T13:12:18;7.03;;;1.10;;
42260;SDS011;27926;48.062;7.474;2023-05-07T13:14:43;1.50;;;0.90;;
42260;SDS011;27926;48.062;7.474;2023-05-07T13:17:07;1.57;;;0.97;;
42260;SDS011;27926;48.062;7.474;2023-05-07T13:19:32;8.50;;;1.33;;
42260;SDS011;27926;48.062;7.474;2023-05-07T13:21:56;8.33;;;1.67;;
42260;SDS011;27926;48.062;7.474;2023-05-07T13:24:21;2.43;;;0.97;;
42260;SDS011;27926;48.062;7.474;2023-05-07T13:26:46;2.27;;;0.93;;
42260;SDS011;27926;48.062;7.474;2023-05-07T13:29:10;1.83;;;1.15;;
42260;SDS011;27926;48.062;7.474;2023-05-07T13:31:35;1.70;;;1.30;;
42260;SDS011;27926;48.062;7.474;2023-05-07T13:33:59;3.57;;;0.93;;
42260;SDS011;27926;48.062;7.474;2023-05-07T13:36:24;2.57;;;0.73;;
42260;SDS011;27926;48.062;7.474;2023-05-07T13:38:49;3.40;;;1.13;;
42260;SDS011;27926;48.062;7.474;2023-05-07T13:41:15;2.25;;;0.80;;
42260;SDS011;27926;48.062;7.474;2023-05-07T13:43:40;0.80;;;0.80;;
42260;SDS011;27926;48.062;7.474;2023-05-07T13:46:04;1.20;;;0.67;;
42260;SDS011;27926;48.062;7.474;2023-05-07T13:48:29;1.70;;;0.97;;
42260;SDS011;27926;48.062;7.474;2023-05-07T13:50:53;0.97;;;0.90;;
42260;SDS011;27926;48.062;7.474;2023-05-07T13:53:18;2.03;;;0.80;;
42260;SDS011;27926;48.062;7.474;2023-05-07T13:55:43;2.70;;;1.03;;
42260;SDS011;27926;48.062;7.474;2023-05-07T13:58:08;1.50;;;0.90;;
42260;SDS011;27926;48.062;7.474;2023-05-07T14:00:32;0.83;;;0.50;;
42260;SDS011;27926;48.062;7.474;2023-05-07T14:02:57;2.67;;;0.97;;
42260;SDS011;27926;48.062;7.474;2023-05-07T14:05:22;1.97;;;0.80;;
42260;SDS011;27926;48.062;7.474;2023-05-07T14:07:47;4.20;;;1.40;;
42260;SDS011;27926;48.062;7.474;2023-05-07T14:10:13;1.85;;;1.02;;
42260;SDS011;27926;48.062;7.474;2023-05-07T14:12:37;3.03;;;1.43;;
42260;SDS011;27926;48.062;7.474;2023-05-07T14:15:02;1.67;;;0.73;;
42260;SDS011;27926;48.062;7.474;2023-05-07T14:17:27;4.47;;;0.82;;
42260;SDS011;27926;48.062;7.474;2023-05-07T14:19:52;4.50;;;0.90;;
42260;SDS011;27926;48.062;7.474;2023-05-07T14:22:18;1.95;;;1.02;;
42260;SDS011;27926;48.062;7.474;2023-05-07T14:24:47;0.93;;;0.90;;
42260;SDS011;27926;48.062;7.474;2023-05-07T14:27:12;1.70;;;0.83;;
42260;SDS011;27926;48.062;7.474;2023-05-07T14:29:36;1.13;;;0.60;;
42260;SDS011;27926;48.062;7.474;2023-05-07T14:32:01;5.75;;;0.80;;
42260;SDS011;27926;48.062;7.474;2023-05-07T14:34:27;2.80;;;0.85;;
42260;SDS011;27926;48.062;7.474;2023-05-07T14:36:51;1.07;;;0.77;;
42260;SDS011;27926;48.062;7.474;2023-05-07T14:39:16;4.13;;;1.13;;
42260;SDS011;27926;48.062;7.474;2023-05-07T14:41:40;4.47;;;0.80;;
42260;SDS011;27926;48.062;7.474;2023-05-07T14:44:05;1.13;;;0.80;;
42260;SDS011;27926;48.062;7.474;2023-05-07T14:46:29;1.07;;;0.87;;
42260;SDS011;27926;48.062;7.474;2023-05-07T14:48:54;0.70;;;0.70;;
42260;SDS011;27926;48.062;7.474;2023-05-07T14:51:19;1.60;;;1.00;;
42260;SDS011;27926;48.062;7.474;2023-05-07T14:53:44;0.80;;;0.80;;
42260;SDS011;27926;48.062;7.474;2023-05-07T14:56:09;0.80;;;0.73;;
42260;SDS011;27926;48.062;7.474;2023-05-07T14:58:36;5.88;;;1.33;;
42260;SDS011;27926;48.062;7.474;2023-05-07T15:01:01;2.75;;;1.02;;
42260;SDS011;27926;48.062;7.474;2023-05-07T15:03:26;0.70;;;0.70;;
42260;SDS011;27926;48.062;7.474;2023-05-07T15:05:51;1.80;;;0.80;;
42260;SDS011;27926;48.062;7.474;2023-05-07T15:08:16;2.73;;;0.70;;
42260;SDS011;27926;48.062;7.474;2023-05-07T15:10:41;2.27;;;1.00;;
42260;SDS011;27926;48.062;7.474;2023-05-07T15:13:05;0.60;;;0.60;;
42260;SDS011;27926;48.062;7.474;2023-05-07T15:15:31;0.75;;;0.70;;
42260;SDS011;27926;48.062;7.474;2023-05-07T15:17:56;3.53;;;0.97;;
42260;SDS011;27926;48.062;7.474;2023-05-07T15:20:20;1.97;;;0.77;;
42260;SDS011;27926;48.062;7.474;2023-05-07T15:22:45;1.90;;;0.93;;